ePrivacy and GPDR Cookie Consent by Cookie Consent
EmailTwitter


Surface observations / Quebec / CYUL (71627)

Regions: Quebec | Canada | USA | Europe | France | UK | Elsewhere
Station
Display
Info & Location for CYUL (71627) | Help decoding METAR

Weather Conditions observed on 2024/06/19 at 17:00 UTC at MONTREAL INTL A, QB (CYUL)

Sky conditions: partly cloudy.

Temperature: 33.0 Celsius.

Dewpoint: 22.0 Celsius.

Relative Humidity: 52%

Humidex 42.

Winds: Southwest at 30 km/h or 16 knots.

Mean Sea level Pressure: 102.21 kilopascals.

Altimeter Setting (QNH): 102.20 kilopascals or 30.18 inches of mercury.

Horizontal visibility: 15.00 statute miles or 24.00 kilometers.

Height of the Ceiling: 7620 metres ( 25000 feet ).

Coded METAR:

CYUL 191700Z 22016KT 15SM FEW070TCU BKN250 33/22 A3018 RMK TCU1CI5 SLP221

DENSITY ALT 1900FT=